createdAt,value
2023-03-07T00:02:00.273Z,3.30
2023-03-07T00:04:26.888Z,3.30
2023-03-07T00:06:55.582Z,3.20
2023-03-07T00:09:22.376Z,3.20
2023-03-07T00:11:49.463Z,3.40
2023-03-07T00:14:16.210Z,3.30
2023-03-07T00:16:42.946Z,3.10
2023-03-07T00:19:09.576Z,3.10
2023-03-07T00:21:36.267Z,3.00
2023-03-07T00:24:02.990Z,3.00
2023-03-07T00:26:29.779Z,2.90
2023-03-07T00:28:56.473Z,3.10
2023-03-07T00:31:23.386Z,3.20
2023-03-07T00:33:50.058Z,3.00
2023-03-07T00:36:17.985Z,3.00
2023-03-07T00:38:45.012Z,2.90
2023-03-07T00:41:13.025Z,2.90
2023-03-07T00:43:40.135Z,3.00
2023-03-07T00:46:07.194Z,2.90
2023-03-07T00:48:34.659Z,2.80
2023-03-07T00:51:01.468Z,2.80
2023-03-07T00:53:28.169Z,2.80
2023-03-07T00:56:02.284Z,2.70
2023-03-07T00:58:29.927Z,2.90
2023-03-07T01:00:56.893Z,2.70
2023-03-07T01:03:23.866Z,2.40
2023-03-07T01:05:51.081Z,2.40
2023-03-07T01:08:17.855Z,2.50
2023-03-07T01:10:45.037Z,2.20
2023-03-07T01:13:12.419Z,1.90
2023-03-07T01:15:39.307Z,2.00
2023-03-07T01:18:06.439Z,2.20
2023-03-07T01:20:33.805Z,2.40
2023-03-07T01:23:00.794Z,2.30
2023-03-07T01:25:27.648Z,2.20
2023-03-07T01:27:57.812Z,2.30
2023-03-07T01:30:24.975Z,2.40
2023-03-07T01:32:58.457Z,2.40
2023-03-07T01:35:25.121Z,2.10
2023-03-07T01:37:52.837Z,2.20
2023-03-07T01:40:20.464Z,2.30
2023-03-07T01:42:47.319Z,2.30
2023-03-07T01:45:13.948Z,2.20
2023-03-07T01:47:41.599Z,2.10
2023-03-07T01:50:11.751Z,2.30
2023-03-07T01:52:41.800Z,2.40
2023-03-07T01:55:08.632Z,2.40
2023-03-07T01:57:37.023Z,2.40
2023-03-07T02:00:08.559Z,2.30
2023-03-07T02:02:36.440Z,2.40
2023-03-07T02:05:22.023Z,2.50
2023-03-07T02:07:49.702Z,2.50
2023-03-07T02:10:17.297Z,2.50
2023-03-07T02:12:44.162Z,2.50
2023-03-07T02:15:11.789Z,2.40
2023-03-07T02:17:39.960Z,2.20
2023-03-07T02:20:24.873Z,2.10
2023-03-07T02:22:51.653Z,2.10
2023-03-07T02:25:37.142Z,2.10
2023-03-07T02:28:04.531Z,2.10
2023-03-07T02:30:31.194Z,2.20
2023-03-07T02:32:57.858Z,2.20
2023-03-07T02:35:25.371Z,2.00
2023-03-07T02:38:00.807Z,2.00
2023-03-07T02:40:29.554Z,2.10
2023-03-07T02:42:57.243Z,2.20
2023-03-07T02:45:23.978Z,2.30
2023-03-07T02:47:50.607Z,2.30
2023-03-07T02:50:17.522Z,2.20
2023-03-07T02:52:44.834Z,2.30
2023-03-07T02:55:11.804Z,2.40
2023-03-07T02:57:38.472Z,2.40
2023-03-07T03:00:08.080Z,2.40
2023-03-07T03:02:34.876Z,2.30
2023-03-07T03:05:01.726Z,2.20
2023-03-07T03:07:28.431Z,2.30
2023-03-07T03:09:55.073Z,2.40
2023-03-07T03:12:21.717Z,2.40
2023-03-07T03:14:48.378Z,2.40
2023-03-07T03:17:15.746Z,2.40
2023-03-07T03:19:42.420Z,2.40
2023-03-07T03:22:09.080Z,2.40
2023-03-07T03:24:38.162Z,2.40
2023-03-07T03:27:05.124Z,2.20
2023-03-07T03:29:31.781Z,2.20
2023-03-07T03:31:58.429Z,2.30
2023-03-07T03:34:25.169Z,2.50
2023-03-07T03:36:52.463Z,2.40
2023-03-07T03:39:19.138Z,2.40
2023-03-07T03:41:45.867Z,2.40
2023-03-07T03:44:12.524Z,2.50
2023-03-07T03:46:39.189Z,2.50
2023-03-07T03:49:05.912Z,2.40
2023-03-07T03:51:32.730Z,2.40
2023-03-07T03:53:59.399Z,2.40
2023-03-07T03:56:27.357Z,2.40
2023-03-07T03:58:55.312Z,2.50
2023-03-07T04:01:23.437Z,2.60
2023-03-07T04:03:51.037Z,2.60
2023-03-07T04:06:28.124Z,2.50
2023-03-07T04:08:55.184Z,2.50
2023-03-07T04:11:22.683Z,2.40
2023-03-07T04:13:49.409Z,2.50
2023-03-07T04:16:16.931Z,2.60
2023-03-07T04:18:43.818Z,2.40
2023-03-07T04:21:13.417Z,2.40
2023-03-07T04:23:40.067Z,2.50
2023-03-07T04:26:07.401Z,2.20
2023-03-07T04:28:45.073Z,2.30
2023-03-07T04:31:12.957Z,2.40
2023-03-07T04:33:39.607Z,2.50
2023-03-07T04:36:06.517Z,2.50
2023-03-07T04:38:33.159Z,2.40
2023-03-07T04:40:59.967Z,2.40
2023-03-07T04:43:26.630Z,2.50
2023-03-07T04:45:54.074Z,2.50
2023-03-07T04:48:20.828Z,2.60
2023-03-07T04:50:50.839Z,2.50
2023-03-07T04:53:17.833Z,2.60
2023-03-07T04:55:44.825Z,2.50
2023-03-07T04:58:13.187Z,2.50
2023-03-07T05:00:40.886Z,2.50
2023-03-07T05:03:08.396Z,2.60
2023-03-07T05:05:37.457Z,2.60
2023-03-07T05:08:04.880Z,2.60
2023-03-07T05:10:32.244Z,2.70
2023-03-07T05:12:58.921Z,2.70
2023-03-07T05:15:25.688Z,2.70
2023-03-07T05:17:52.363Z,2.60
2023-03-07T05:20:19.244Z,2.50
2023-03-07T05:22:46.008Z,2.50
2023-03-07T05:25:12.794Z,2.50
2023-03-07T05:27:39.474Z,2.70
2023-03-07T05:30:06.606Z,2.60
2023-03-07T05:32:33.376Z,2.70
2023-03-07T05:35:00.049Z,2.70
2023-03-07T05:37:26.715Z,2.70
2023-03-07T05:39:53.849Z,2.70
2023-03-07T05:42:20.574Z,2.70
2023-03-07T05:44:47.864Z,2.60
2023-03-07T05:47:14.600Z,2.60
2023-03-07T05:49:41.332Z,2.60
2023-03-07T05:52:08.007Z,2.60
2023-03-07T05:54:34.637Z,2.60
2023-03-07T05:57:01.287Z,2.50
2023-03-07T05:59:27.917Z,2.40
2023-03-07T06:01:54.547Z,2.50
2023-03-07T06:04:21.206Z,2.60
2023-03-07T06:06:47.826Z,2.40
2023-03-07T06:09:14.469Z,2.50
2023-03-07T06:11:41.159Z,2.50
2023-03-07T06:14:07.788Z,2.60
2023-03-07T06:16:34.447Z,2.60
2023-03-07T06:19:01.192Z,2.50
2023-03-07T06:21:27.817Z,2.40
2023-03-07T06:23:56.019Z,2.30
2023-03-07T06:26:22.811Z,2.20
2023-03-07T06:28:50.240Z,2.20
2023-03-07T06:31:17.710Z,2.20
2023-03-07T06:33:44.968Z,2.30
2023-03-07T06:36:13.127Z,2.30
2023-03-07T06:38:40.102Z,2.50
2023-03-07T06:41:07.001Z,2.60
2023-03-07T06:43:34.132Z,2.70
2023-03-07T06:46:01.301Z,2.80
2023-03-07T06:48:28.103Z,2.70
2023-03-07T06:50:54.731Z,2.50
2023-03-07T06:53:21.387Z,2.50
2023-03-07T06:55:49.584Z,2.60
2023-03-07T06:58:16.259Z,2.60
2023-03-07T07:00:42.918Z,2.70
2023-03-07T07:03:13.713Z,2.70
2023-03-07T07:05:40.397Z,2.70
2023-03-07T07:08:07.039Z,2.70
2023-03-07T07:10:33.756Z,2.70
2023-03-07T07:13:00.468Z,2.70
2023-03-07T07:15:27.174Z,2.70
2023-03-07T07:17:53.985Z,2.70
2023-03-07T07:20:20.776Z,2.70
2023-03-07T07:22:47.421Z,2.70
2023-03-07T07:25:14.149Z,2.50
2023-03-07T07:27:40.944Z,2.40
2023-03-07T07:30:08.026Z,2.40
2023-03-07T07:32:34.955Z,2.40
2023-03-07T07:35:02.075Z,2.50
2023-03-07T07:37:28.700Z,2.50
2023-03-07T07:39:55.348Z,2.30
2023-03-07T07:42:21.980Z,2.50
2023-03-07T07:44:48.946Z,2.60
2023-03-07T07:47:15.736Z,2.60
2023-03-07T07:49:42.386Z,2.50
2023-03-07T07:52:12.815Z,2.50
2023-03-07T07:54:39.472Z,2.40
2023-03-07T07:57:06.158Z,2.40
2023-03-07T07:59:34.234Z,2.60
2023-03-07T08:02:01.660Z,2.60
2023-03-07T08:04:28.419Z,2.70
2023-03-07T08:06:55.194Z,2.80
2023-03-07T08:09:21.866Z,2.70
2023-03-07T08:11:48.616Z,2.80
2023-03-07T08:14:15.446Z,2.90
2023-03-07T08:16:42.175Z,2.90
2023-03-07T08:19:09.004Z,2.90
2023-03-07T08:21:35.756Z,2.90
2023-03-07T08:24:03.346Z,2.90
2023-03-07T08:26:30.026Z,2.90
2023-03-07T08:28:57.594Z,2.80
2023-03-07T08:31:24.752Z,2.80
2023-03-07T08:33:52.129Z,2.70
2023-03-07T08:36:18.954Z,2.70
2023-03-07T08:38:47.925Z,2.70
2023-03-07T08:41:14.623Z,2.60
2023-03-07T08:43:41.542Z,2.60
2023-03-07T08:46:08.256Z,2.70
2023-03-07T08:48:34.952Z,2.70
2023-03-07T08:51:06.179Z,2.80
2023-03-07T08:53:32.890Z,2.70
2023-03-07T08:56:27.893Z,2.60
2023-03-07T08:58:54.895Z,2.60
2023-03-07T09:01:25.407Z,2.50
2023-03-07T09:03:52.105Z,2.70
2023-03-07T09:06:19.793Z,2.70
2023-03-07T09:08:47.393Z,2.80
2023-03-07T09:11:14.195Z,2.90
2023-03-07T09:13:51.442Z,2.90
2023-03-07T09:16:19.463Z,2.90
2023-03-07T09:18:46.263Z,3.10
2023-03-07T09:21:12.972Z,3.00
2023-03-07T09:23:39.618Z,2.80
2023-03-07T09:26:06.482Z,2.90
2023-03-07T09:28:33.379Z,3.00
2023-03-07T09:31:00.241Z,2.80
2023-03-07T09:33:26.963Z,2.70
2023-03-07T09:35:53.728Z,2.80
2023-03-07T09:38:20.387Z,2.80
2023-03-07T09:40:48.328Z,2.80
2023-03-07T09:43:26.547Z,2.70
2023-03-07T09:45:55.902Z,2.70
2023-03-07T09:48:35.439Z,2.70
2023-03-07T09:51:11.919Z,2.70
2023-03-07T09:53:53.494Z,2.80
2023-03-07T09:56:24.137Z,2.90
2023-03-07T09:59:02.543Z,3.00
2023-03-07T10:01:31.940Z,2.90
2023-03-07T10:04:02.925Z,2.90
2023-03-07T10:06:42.832Z,2.80
2023-03-07T10:09:14.945Z,2.90
2023-03-07T10:11:57.984Z,2.90
2023-03-07T10:14:45.335Z,2.80
2023-03-07T10:17:15.190Z,2.90
2023-03-07T10:19:42.044Z,2.90
2023-03-07T10:22:27.773Z,2.90
2023-03-07T10:25:13.098Z,2.80
2023-03-07T10:27:39.929Z,2.90
2023-03-07T10:30:11.464Z,2.90
2023-03-07T10:32:46.410Z,2.90
2023-03-07T10:35:16.721Z,3.00
2023-03-07T10:38:04.650Z,2.90
2023-03-07T10:40:51.601Z,3.00
2023-03-07T10:43:29.492Z,2.90
2023-03-07T10:46:03.739Z,2.90
2023-03-07T10:48:31.645Z,3.00
2023-03-07T10:51:17.063Z,3.00
2023-03-07T10:53:43.723Z,2.90
2023-03-07T10:56:10.423Z,3.00
2023-03-07T10:58:37.124Z,3.10
2023-03-07T11:01:15.491Z,3.10
2023-03-07T11:04:01.548Z,2.70
2023-03-07T11:06:30.914Z,2.80
2023-03-07T11:09:04.385Z,2.70
2023-03-07T11:11:31.969Z,2.80
2023-03-07T11:14:09.341Z,2.90
2023-03-07T11:16:56.301Z,2.90
2023-03-07T11:19:26.567Z,3.00
2023-03-07T11:21:54.881Z,2.80
2023-03-07T11:24:29.011Z,2.80
2023-03-07T11:26:57.124Z,2.70
2023-03-07T11:29:24.946Z,2.80
2023-03-07T11:31:51.594Z,2.90
2023-03-07T11:34:18.197Z,2.70
2023-03-07T11:36:48.631Z,3.00
2023-03-07T11:39:15.401Z,3.00
2023-03-07T11:41:46.189Z,3.10
2023-03-07T11:44:15.952Z,2.80
2023-03-07T11:46:54.768Z,2.70
2023-03-07T11:49:24.443Z,2.50
2023-03-07T11:52:09.446Z,2.70
2023-03-07T11:54:49.676Z,2.50
2023-03-07T11:57:27.081Z,2.50
2023-03-07T12:00:12.378Z,2.70
2023-03-07T12:02:41.808Z,2.60
2023-03-07T12:05:11.508Z,2.60
2023-03-07T12:07:55.715Z,2.50
2023-03-07T12:10:22.378Z,2.40
2023-03-07T12:13:04.782Z,2.50
2023-03-07T12:15:34.230Z,2.50
2023-03-07T12:18:19.673Z,2.70
2023-03-07T12:20:55.404Z,2.80
2023-03-07T12:23:38.710Z,2.70
2023-03-07T12:26:11.488Z,2.80
2023-03-07T12:28:49.473Z,2.70
2023-03-07T12:31:23.266Z,2.70
2023-03-07T12:33:53.014Z,2.80
2023-03-07T12:36:22.763Z,2.90
2023-03-07T12:38:52.799Z,3.00
2023-03-07T12:41:38.322Z,3.00
2023-03-07T12:44:06.703Z,3.00
2023-03-07T12:47:13.773Z,2.90
2023-03-07T12:49:49.733Z,2.90
2023-03-07T12:52:43.080Z,2.90
2023-03-07T12:55:25.017Z,3.00
2023-03-07T12:58:14.711Z,3.10
2023-03-07T13:00:43.943Z,3.20
2023-03-07T13:03:14.688Z,3.20
2023-03-07T13:05:43.657Z,3.30
2023-03-07T13:08:17.760Z,3.30
2023-03-07T13:10:45.333Z,3.30
2023-03-07T13:13:44.587Z,3.40
2023-03-07T13:16:12.826Z,3.40
2023-03-07T13:18:39.554Z,3.40
2023-03-07T13:21:07.668Z,3.50
2023-03-07T13:23:34.459Z,3.40
2023-03-07T13:26:02.351Z,3.20
2023-03-07T13:28:31.716Z,3.30
2023-03-07T13:31:33.845Z,3.40
2023-03-07T13:34:19.290Z,3.40
2023-03-07T13:36:46.009Z,3.30
2023-03-07T13:39:31.138Z,3.40
2023-03-07T13:41:57.779Z,3.40
2023-03-07T13:44:27.130Z,3.20
2023-03-07T13:46:55.818Z,3.10
2023-03-07T13:49:36.241Z,3.20
2023-03-07T13:52:17.655Z,3.20
2023-03-07T13:54:46.091Z,3.30
2023-03-07T13:57:16.549Z,3.40
2023-03-07T13:59:46.989Z,3.40
2023-03-07T14:02:14.444Z,3.40
2023-03-07T14:04:46.924Z,3.30
2023-03-07T14:07:24.622Z,3.30
2023-03-07T14:10:22.243Z,3.30
2023-03-07T14:13:09.376Z,3.00
2023-03-07T14:15:36.771Z,3.00
2023-03-07T14:18:03.513Z,3.10
2023-03-07T14:20:49.017Z,3.30
2023-03-07T14:23:34.925Z,3.30
2023-03-07T14:26:09.283Z,3.40
2023-03-07T14:28:36.199Z,3.20
2023-03-07T14:31:08.034Z,3.20
2023-03-07T14:33:36.345Z,3.20
2023-03-07T14:36:05.420Z,3.30
2023-03-07T14:38:32.941Z,3.40
2023-03-07T14:41:02.647Z,3.50
2023-03-07T14:43:51.014Z,3.30
2023-03-07T14:46:20.790Z,3.30
2023-03-07T14:49:04.334Z,3.30
2023-03-07T14:51:31.156Z,3.30
2023-03-07T14:53:58.650Z,3.20
2023-03-07T14:56:32.185Z,3.30
2023-03-07T14:59:00.800Z,3.10
2023-03-07T15:01:32.062Z,3.20
2023-03-07T15:03:58.931Z,3.30
2023-03-07T15:06:26.695Z,3.30
2023-03-07T15:08:56.009Z,3.30
2023-03-07T15:11:32.891Z,3.40
2023-03-07T15:14:02.478Z,3.40
2023-03-07T15:16:30.343Z,3.40
2023-03-07T15:19:09.355Z,3.30
2023-03-07T15:21:38.494Z,3.20
2023-03-07T15:24:05.676Z,3.40
2023-03-07T15:26:33.229Z,3.40
2023-03-07T15:29:01.403Z,3.40
2023-03-07T15:31:32.211Z,3.40
2023-03-07T15:34:12.392Z,3.20
2023-03-07T15:36:39.574Z,3.20
2023-03-07T15:39:23.099Z,3.40
2023-03-07T15:42:00.257Z,3.40
2023-03-07T15:44:26.921Z,3.40
2023-03-07T15:46:55.349Z,3.40
2023-03-07T15:49:22.009Z,3.40
2023-03-07T15:51:51.081Z,3.40
2023-03-07T15:54:24.010Z,3.40
2023-03-07T15:56:59.437Z,3.40
2023-03-07T15:59:29.262Z,3.50
2023-03-07T16:01:56.286Z,3.50
2023-03-07T16:04:32.109Z,3.50
2023-03-07T16:06:59.246Z,3.50
2023-03-07T16:09:25.968Z,3.50
2023-03-07T16:11:52.857Z,3.50
2023-03-07T16:14:22.505Z,3.50
2023-03-07T16:16:49.492Z,3.40
2023-03-07T16:19:16.279Z,3.30
2023-03-07T16:21:43.015Z,3.30
2023-03-07T16:24:09.809Z,3.40
2023-03-07T16:26:36.522Z,3.40
2023-03-07T16:29:03.882Z,3.30
2023-03-07T16:31:30.601Z,3.30
2023-03-07T16:33:57.886Z,3.30
2023-03-07T16:36:24.523Z,3.30
2023-03-07T16:38:51.155Z,3.20
2023-03-07T16:41:19.952Z,3.20
2023-03-07T16:43:47.417Z,3.30
2023-03-07T16:46:16.174Z,3.30
2023-03-07T16:48:43.217Z,3.30
2023-03-07T16:51:14.023Z,3.30
2023-03-07T16:53:56.118Z,3.30
2023-03-07T16:56:22.868Z,3.30
2023-03-07T16:58:49.541Z,3.30
2023-03-07T17:01:16.343Z,3.40
2023-03-07T17:03:43.064Z,3.30
2023-03-07T17:06:14.457Z,3.20
2023-03-07T17:08:41.173Z,3.20
2023-03-07T17:11:33.908Z,3.30
2023-03-07T17:14:02.570Z,3.30
2023-03-07T17:16:29.631Z,3.30
2023-03-07T17:18:56.299Z,3.10
2023-03-07T17:21:23.438Z,3.20
2023-03-07T17:23:50.205Z,3.20
2023-03-07T17:26:37.172Z,3.10
2023-03-07T17:29:05.533Z,3.20
2023-03-07T17:31:32.243Z,3.10
2023-03-07T17:33:59.055Z,3.10
2023-03-07T17:36:25.805Z,2.90
2023-03-07T17:38:52.652Z,2.90
2023-03-07T17:41:19.347Z,2.90
2023-03-07T17:43:46.048Z,2.90
2023-03-07T17:46:12.714Z,2.90
2023-03-07T17:48:39.536Z,2.80
2023-03-07T17:51:09.961Z,2.80
2023-03-07T17:53:37.077Z,3.00
2023-03-07T17:56:11.083Z,3.00
2023-03-07T17:58:38.532Z,3.10
2023-03-07T18:01:07.754Z,2.90
2023-03-07T18:03:35.105Z,2.90
2023-03-07T18:06:01.795Z,2.90
2023-03-07T18:08:28.731Z,2.80
2023-03-07T18:11:01.854Z,2.70
2023-03-07T18:13:28.490Z,2.70
2023-03-07T18:15:56.889Z,2.70
2023-03-07T18:18:23.756Z,2.80
2023-03-07T18:20:57.881Z,2.90
2023-03-07T18:23:24.774Z,2.90
2023-03-07T18:25:57.463Z,2.90
2023-03-07T18:28:25.688Z,2.90
2023-03-07T18:31:03.442Z,2.90
2023-03-07T18:33:30.657Z,3.00
2023-03-07T18:35:57.797Z,3.10
2023-03-07T18:38:24.713Z,3.00
2023-03-07T18:40:53.758Z,3.00
2023-03-07T18:43:20.566Z,2.90
2023-03-07T18:45:48.138Z,2.80
2023-03-07T18:48:14.802Z,2.70
2023-03-07T18:50:41.458Z,3.00
2023-03-07T18:53:08.127Z,3.00
2023-03-07T18:55:37.310Z,3.00
2023-03-07T18:58:03.970Z,3.10
2023-03-07T19:00:30.834Z,3.10
2023-03-07T19:02:57.516Z,3.10
2023-03-07T19:05:24.207Z,3.00
2023-03-07T19:07:50.848Z,2.90
2023-03-07T19:10:17.580Z,3.00
2023-03-07T19:12:44.231Z,3.00
2023-03-07T19:15:11.204Z,3.00
2023-03-07T19:17:38.783Z,3.00
2023-03-07T19:20:05.750Z,3.00
2023-03-07T19:22:33.550Z,3.10
2023-03-07T19:25:00.313Z,3.10
2023-03-07T19:27:28.105Z,3.20
2023-03-07T19:29:54.930Z,3.20
2023-03-07T19:32:21.864Z,3.10
2023-03-07T19:34:49.982Z,3.10
2023-03-07T19:37:17.022Z,3.10
2023-03-07T19:39:43.696Z,3.10
2023-03-07T19:42:10.694Z,3.10
2023-03-07T19:44:37.372Z,3.20
2023-03-07T19:47:04.197Z,3.00
2023-03-07T19:49:30.927Z,3.00
2023-03-07T19:51:57.581Z,3.10
2023-03-07T19:54:24.272Z,3.10
2023-03-07T19:56:51.375Z,3.00
2023-03-07T19:59:18.042Z,3.10
2023-03-07T20:01:44.839Z,3.10
2023-03-07T20:04:12.062Z,3.00
2023-03-07T20:06:39.203Z,3.00
2023-03-07T20:09:05.923Z,3.10
2023-03-07T20:11:33.569Z,3.00
2023-03-07T20:14:01.396Z,3.00
2023-03-07T20:16:29.492Z,2.60
2023-03-07T20:18:57.499Z,2.70
2023-03-07T20:21:27.481Z,2.70
2023-03-07T20:23:54.633Z,2.50
2023-03-07T20:26:25.053Z,2.20
2023-03-07T20:28:52.340Z,2.40
2023-03-07T20:31:20.327Z,2.50
2023-03-07T20:34:07.024Z,2.50
2023-03-07T20:36:34.619Z,2.20
2023-03-07T20:39:02.960Z,2.00
2023-03-07T20:41:30.832Z,2.10
2023-03-07T20:43:59.136Z,2.20
2023-03-07T20:46:25.892Z,2.30
2023-03-07T20:48:55.637Z,2.30
2023-03-07T20:51:23.742Z,1.90
2023-03-07T20:53:51.289Z,1.90
2023-03-07T20:56:18.610Z,1.80
2023-03-07T20:58:45.563Z,1.60
2023-03-07T21:01:12.926Z,1.70
2023-03-07T21:03:39.737Z,1.50
2023-03-07T21:06:06.488Z,1.60
2023-03-07T21:08:34.316Z,1.70
2023-03-07T21:11:01.995Z,1.70
2023-03-07T21:13:29.123Z,1.20
2023-03-07T21:15:57.068Z,1.30
2023-03-07T21:18:23.951Z,1.40
2023-03-07T21:20:50.610Z,1.60
2023-03-07T21:23:17.513Z,1.30
2023-03-07T21:25:45.127Z,1.00
2023-03-07T21:28:12.280Z,1.10
2023-03-07T21:30:39.049Z,1.30
2023-03-07T21:33:05.685Z,1.00
2023-03-07T21:35:36.286Z,1.10
2023-03-07T21:38:02.928Z,1.40
2023-03-07T21:40:29.621Z,1.40
2023-03-07T21:42:56.293Z,1.30
2023-03-07T21:45:25.464Z,1.10
2023-03-07T21:47:54.269Z,1.30
2023-03-07T21:50:21.075Z,1.20
2023-03-07T21:52:48.357Z,0.90
2023-03-07T21:55:15.185Z,0.80
2023-03-07T21:57:42.001Z,0.90
2023-03-07T22:00:10.139Z,1.10
2023-03-07T22:02:37.218Z,1.10
2023-03-07T22:05:04.912Z,1.10
2023-03-07T22:07:31.891Z,0.90
2023-03-07T22:09:58.536Z,1.10
2023-03-07T22:12:25.237Z,1.10
2023-03-07T22:14:51.913Z,1.30
2023-03-07T22:17:18.552Z,1.30
2023-03-07T22:19:45.205Z,1.20
2023-03-07T22:22:12.079Z,1.10
2023-03-07T22:24:38.721Z,1.10
2023-03-07T22:27:07.164Z,0.70
2023-03-07T22:29:33.947Z,0.60
2023-03-07T22:32:00.691Z,0.80
2023-03-07T22:34:27.417Z,0.80
2023-03-07T22:36:56.236Z,0.90
2023-03-07T22:39:23.616Z,0.60
2023-03-07T22:41:50.737Z,0.70
2023-03-07T22:44:19.455Z,0.90
2023-03-07T22:46:46.889Z,1.20
2023-03-07T22:49:13.593Z,0.80
2023-03-07T22:51:40.258Z,0.70
2023-03-07T22:54:07.093Z,0.80
2023-03-07T22:56:33.900Z,0.40
2023-03-07T22:59:04.543Z,0.30
2023-03-07T23:01:32.017Z,0.40
2023-03-07T23:03:59.678Z,0.60
2023-03-07T23:06:28.527Z,0.40
2023-03-07T23:08:55.290Z,0.30
2023-03-07T23:11:23.282Z,0.30
2023-03-07T23:13:49.954Z,0.40
2023-03-07T23:16:17.764Z,0.40
2023-03-07T23:18:45.496Z,0.40
2023-03-07T23:21:13.135Z,0.30
2023-03-07T23:23:39.769Z,0.40
2023-03-07T23:26:06.822Z,0.40
2023-03-07T23:28:33.622Z,0.10
2023-03-07T23:31:00.322Z,0.30
2023-03-07T23:33:27.056Z,0.40
2023-03-07T23:35:53.750Z,0.20
2023-03-07T23:38:20.435Z,0.30
2023-03-07T23:40:47.082Z,0.40
2023-03-07T23:43:13.912Z,0.50
2023-03-07T23:45:41.041Z,0.40
2023-03-07T23:48:07.704Z,0.20
2023-03-07T23:50:34.342Z,0.10
2023-03-07T23:53:01.020Z,0.30
2023-03-07T23:55:27.678Z,0.50
2023-03-07T23:57:54.303Z,0.70
